This is the latest recevied weather packets stored in our database for station/object KD9IXX-13. If no packets are shown the sender has not sent any weather packets the latest 10 day(s).
| Time | Temp. | Humidity | Pressure | Rain* | Wind** | Luminosity | Snow |
|---|---|---|---|---|---|---|---|
| 1777936802 | 18.33° C | 82% | 1000.5 hPa | 0 mm | - | 39 W/m² | - |
| 1777936501 | 18.33° C | 84% | 1000.4 hPa | 10.67 mm | - | 49 W/m² | - |
| 1777936202 | 20° C | 82% | 1000.7 hPa | 10.67 mm | - | 44 W/m² | - |
| 1777935902 | 21.11° C | 68% | 1000.2 hPa | 0 mm | - | 35 W/m² | - |
| 1777935602 | 21.11° C | 67% | 1000.4 hPa | 0 mm | - | 61 W/m² | - |
| 1777935302 | 21.67° C | 64% | 1000.2 hPa | 0 mm | - | 101 W/m² | - |
| 1777935003 | 21.67° C | 62% | 1000.6 hPa | 0 mm | - | 171 W/m² | - |
| 1777934702 | 21.67° C | 66% | 1000.5 hPa | 0 mm | - | 99 W/m² | - |
| 1777934402 | 21.67° C | 66% | 1000.6 hPa | 0 mm | - | 42 W/m² | - |
| 1777934102 | 23.33° C | 57% | 1000.3 hPa | 0 mm | - | 32 W/m² | - |
| 1777933803 | 23.89° C | 53% | 1000.2 hPa | 0 mm | - | 18 W/m² | - |
| 1777933502 | 23.89° C | 52% | 1000.2 hPa | 0 mm | - | 19 W/m² | - |
| 1777933202 | 23.89° C | 52% | 1000.1 hPa | 0 mm | - | 21 W/m² | - |
| 1777932903 | 23.89° C | 52% | 1000.3 hPa | 0 mm | - | 17 W/m² | - |
| 1777932602 | 23.89° C | 52% | 1000.3 hPa | 0 mm | - | 13 W/m² | - |
| 1777932302 | 23.89° C | 51% | 1000.7 hPa | 0 mm | - | 19 W/m² | - |
| 1777932002 | 24.44° C | 51% | 1000.3 hPa | 0 mm | - | 30 W/m² | - |
| 1777931702 | 24.44° C | 49% | 1000.4 hPa | 0 mm | - | 48 W/m² | - |
| 1777931402 | 24.44° C | 48% | 1000.6 hPa | 0 mm | - | 39 W/m² | - |
| 1777931102 | 24.44° C | 47% | 1000.7 hPa | 0 mm | - | 62 W/m² | - |
| 1777930802 | 24.44° C | 47% | 1000.5 hPa | 0 mm | - | 81 W/m² | - |
| 1777930503 | 24.44° C | 47% | 1000.4 hPa | 0 mm | - | 90 W/m² | - |
| 1777930203 | 25.56° C | 46% | 1000.6 hPa | 0 mm | - | 130 W/m² | - |
| 1777929902 | 26.11° C | 45% | 1000.8 hPa | 0 mm | - | 407 W/m² | - |
| 1777929602 | 26.11° C | 46% | 1000.8 hPa | 0 mm | - | 449 W/m² | - |
* Rain latest hour (hover to see other rain measurements)
** Current wind speed in m/s (hover to see current wind gust speed)